createdAt,value
2022-08-22T00:00:53.190Z,100.00
2022-08-22T00:02:43.674Z,100.00
2022-08-22T00:02:46.232Z,100.00
2022-08-22T00:02:47.978Z,89.60
2022-08-22T00:03:11.263Z,100.00
2022-08-22T00:06:09.749Z,100.00
2022-08-22T00:11:25.732Z,100.00
2022-08-22T00:16:39.508Z,100.00
2022-08-22T00:21:52.930Z,100.00
2022-08-22T00:27:02.178Z,100.00
2022-08-22T00:32:15.108Z,100.00
2022-08-22T00:37:25.134Z,100.00
2022-08-22T00:42:52.615Z,100.00
2022-08-22T00:48:11.064Z,100.00
2022-08-22T00:53:32.725Z,100.00
2022-08-22T00:59:22.874Z,100.00
2022-08-22T01:04:51.626Z,100.00
2022-08-22T01:10:05.074Z,100.00
2022-08-22T01:15:12.020Z,100.00
2022-08-22T01:20:53.359Z,100.00
2022-08-22T01:26:30.088Z,100.00
2022-08-22T01:32:10.935Z,100.00
2022-08-22T01:37:35.057Z,100.00
2022-08-22T01:43:04.781Z,100.00
2022-08-22T01:48:15.433Z,100.00
2022-08-22T01:53:28.149Z,100.00
2022-08-22T01:58:34.312Z,100.00
2022-08-22T02:03:44.444Z,100.00
2022-08-22T02:09:03.691Z,100.00
2022-08-22T02:14:18.135Z,100.00
2022-08-22T02:19:30.359Z,100.00
2022-08-22T02:24:50.612Z,100.00
2022-08-22T02:30:03.216Z,100.00
2022-08-22T02:35:18.000Z,100.00
2022-08-22T02:40:33.503Z,100.00
2022-08-22T02:45:41.731Z,100.00
2022-08-22T02:50:53.357Z,100.00
2022-08-22T02:56:04.259Z,100.00
2022-08-22T03:01:24.004Z,100.00
2022-08-22T03:06:35.628Z,100.00
2022-08-22T03:11:44.884Z,100.00
2022-08-22T03:16:56.287Z,100.00
2022-08-22T03:22:04.578Z,100.00
2022-08-22T03:27:12.845Z,100.00
2022-08-22T03:32:19.427Z,100.00
2022-08-22T03:37:29.639Z,100.00
2022-08-22T03:42:55.866Z,100.00
2022-08-22T03:48:21.276Z,100.00
2022-08-22T03:53:41.816Z,100.00
2022-08-22T03:59:26.302Z,100.00
2022-08-22T04:04:56.696Z,100.00
2022-08-22T04:10:49.770Z,100.00
2022-08-22T04:16:15.215Z,100.00
2022-08-22T04:21:40.426Z,100.00
2022-08-22T04:26:49.518Z,100.00
2022-08-22T04:32:01.805Z,100.00
2022-08-22T04:37:11.051Z,100.00
2022-08-22T04:42:34.862Z,100.00
2022-08-22T04:47:49.711Z,100.00
2022-08-22T04:53:10.274Z,100.00
2022-08-22T04:58:30.302Z,100.00
2022-08-22T05:03:44.716Z,100.00
2022-08-22T05:08:53.942Z,100.00
2022-08-22T05:14:01.728Z,100.00
2022-08-22T05:19:15.803Z,100.00
2022-08-22T05:24:28.095Z,100.00
2022-08-22T05:29:33.648Z,100.00
2022-08-22T05:34:42.706Z,100.00
2022-08-22T05:39:49.873Z,100.00
2022-08-22T05:44:55.188Z,100.00
2022-08-22T05:50:04.699Z,100.00
2022-08-22T05:55:22.655Z,100.00
2022-08-22T06:00:32.502Z,100.00
2022-08-22T06:05:43.771Z,100.00
2022-08-22T06:10:51.856Z,100.00
2022-08-22T06:16:04.095Z,100.00
2022-08-22T06:21:13.052Z,100.00
2022-08-22T06:26:20.787Z,100.00
2022-08-22T06:31:28.018Z,100.00
2022-08-22T06:36:36.232Z,100.00
2022-08-22T06:41:42.415Z,100.00
2022-08-22T06:46:53.433Z,100.00
2022-08-22T06:52:02.880Z,100.00
2022-08-22T06:57:13.252Z,100.00
2022-08-22T07:02:23.086Z,100.00
2022-08-22T07:07:28.859Z,100.00
2022-08-22T07:12:38.123Z,100.00
2022-08-22T07:17:50.631Z,100.00
2022-08-22T07:23:00.919Z,100.00
2022-08-22T07:28:16.301Z,100.00
2022-08-22T07:33:39.185Z,100.00
2022-08-22T07:38:48.939Z,100.00
2022-08-22T07:43:56.037Z,100.00
2022-08-22T07:49:09.618Z,100.00
2022-08-22T07:54:22.442Z,100.00
2022-08-22T07:59:34.231Z,100.00
2022-08-22T08:04:40.666Z,100.00
2022-08-22T08:09:51.051Z,100.00
2022-08-22T08:14:56.706Z,100.00
2022-08-22T08:20:07.547Z,100.00
2022-08-22T08:25:17.140Z,100.00
2022-08-22T08:30:23.420Z,100.00
2022-08-22T08:35:31.637Z,100.00
2022-08-22T08:41:14.920Z,100.00
2022-08-22T08:46:55.401Z,100.00
2022-08-22T08:52:26.904Z,100.00
2022-08-22T08:57:49.640Z,100.00
2022-08-22T09:03:00.648Z,100.00
2022-08-22T09:08:55.813Z,100.00
2022-08-22T09:14:19.603Z,100.00
2022-08-22T09:19:51.070Z,100.00
2022-08-22T09:25:17.161Z,100.00
2022-08-22T09:30:28.516Z,100.00
2022-08-22T09:35:41.200Z,100.00
2022-08-22T09:40:48.888Z,100.00
2022-08-22T09:46:06.499Z,100.00
2022-08-22T09:51:32.709Z,98.98
2022-08-22T09:56:40.354Z,94.03
2022-08-22T10:01:54.978Z,91.59
2022-08-22T10:07:12.091Z,80.95
2022-08-22T10:12:24.202Z,80.82
2022-08-22T10:17:36.549Z,83.96
2022-08-22T10:22:50.507Z,79.68
2022-08-22T10:28:10.520Z,79.56
2022-08-22T10:33:24.882Z,74.63
2022-08-22T10:38:44.224Z,72.35
2022-08-22T10:43:56.415Z,72.06
2022-08-22T10:49:14.328Z,67.53
2022-08-22T10:54:33.611Z,72.73
2022-08-22T10:59:44.936Z,66.97
2022-08-22T11:05:09.318Z,66.39
2022-08-22T11:10:23.259Z,60.05
2022-08-22T11:15:57.512Z,55.85
2022-08-22T11:21:08.577Z,56.47
2022-08-22T11:26:33.678Z,55.35
2022-08-22T11:31:55.928Z,54.42
2022-08-22T11:37:23.761Z,52.24
2022-08-22T11:42:34.731Z,52.16
2022-08-22T11:48:01.027Z,48.24
2022-08-22T11:53:20.822Z,49.25
2022-08-22T11:58:42.862Z,49.96
2022-08-22T12:04:00.715Z,50.96
2022-08-22T12:09:21.912Z,50.61
2022-08-22T12:14:35.413Z,49.54
2022-08-22T12:20:14.772Z,47.90
2022-08-22T12:25:29.425Z,49.01
2022-08-22T12:30:39.033Z,51.80
2022-08-22T12:35:54.595Z,52.40
2022-08-22T12:41:28.139Z,52.71
2022-08-22T12:46:50.165Z,52.05
2022-08-22T12:52:10.647Z,52.42
2022-08-22T12:57:27.499Z,50.62
2022-08-22T13:02:35.939Z,50.19
2022-08-22T13:07:42.499Z,51.37
2022-08-22T13:12:49.373Z,49.88
2022-08-22T13:17:54.137Z,47.92
2022-08-22T13:23:01.760Z,48.34
2022-08-22T13:28:13.355Z,45.93
2022-08-22T13:33:27.067Z,45.28
2022-08-22T13:38:39.323Z,43.51
2022-08-22T13:44:17.565Z,44.17
2022-08-22T13:49:33.721Z,44.18
2022-08-22T13:54:54.232Z,43.21
2022-08-22T14:00:09.292Z,44.88
2022-08-22T14:05:21.211Z,44.38
2022-08-22T14:10:28.846Z,44.63
2022-08-22T14:15:41.569Z,43.71
2022-08-22T14:20:49.764Z,43.10
2022-08-22T14:25:53.830Z,42.80
2022-08-22T14:31:04.099Z,42.06
2022-08-22T14:36:15.562Z,39.35
2022-08-22T14:41:55.765Z,38.75
2022-08-22T14:46:58.581Z,37.18
2022-08-22T14:52:07.411Z,39.27
2022-08-22T14:57:20.097Z,40.44
2022-08-22T15:02:30.703Z,40.72
2022-08-22T15:07:37.592Z,40.60
2022-08-22T15:12:48.307Z,41.76
2022-08-22T15:17:54.333Z,42.48
2022-08-22T15:23:03.095Z,42.71
2022-08-22T15:28:20.852Z,42.85
2022-08-22T15:33:29.393Z,41.71
2022-08-22T15:38:36.418Z,42.04
2022-08-22T15:43:47.968Z,42.72
2022-08-22T15:49:00.590Z,42.05
2022-08-22T15:54:24.993Z,42.25
2022-08-22T15:59:47.913Z,41.93
2022-08-22T16:05:23.680Z,41.02
2022-08-22T16:10:36.219Z,40.77
2022-08-22T16:16:01.140Z,40.90
2022-08-22T16:21:07.656Z,40.83
2022-08-22T16:26:15.232Z,41.08
2022-08-22T16:31:27.184Z,41.46
2022-08-22T16:36:45.882Z,41.01
2022-08-22T16:41:51.453Z,40.65
2022-08-22T16:47:07.719Z,41.37
2022-08-22T16:52:53.064Z,41.50
2022-08-22T16:58:07.234Z,41.26
2022-08-22T17:03:19.711Z,41.87
2022-08-22T17:08:40.367Z,42.34
2022-08-22T17:14:04.594Z,42.36
2022-08-22T17:19:21.880Z,42.16
2022-08-22T17:24:34.708Z,43.39
2022-08-22T17:29:52.079Z,43.65
2022-08-22T17:35:13.672Z,44.55
2022-08-22T17:40:32.627Z,45.40
2022-08-22T17:45:54.122Z,46.12
2022-08-22T17:51:02.542Z,46.82
2022-08-22T17:56:17.647Z,47.05
2022-08-22T18:01:43.798Z,48.12
2022-08-22T18:06:55.526Z,48.93
2022-08-22T18:12:06.085Z,49.79
2022-08-22T18:17:19.883Z,51.65
2022-08-22T18:22:28.683Z,54.36
2022-08-22T18:27:40.308Z,55.89
2022-08-22T18:32:53.705Z,57.56
2022-08-22T18:38:03.427Z,59.66
2022-08-22T18:43:37.254Z,59.92
2022-08-22T18:49:11.603Z,60.53
2022-08-22T18:54:38.386Z,61.99
2022-08-22T19:00:05.544Z,65.44
2022-08-22T19:05:40.267Z,65.61
2022-08-22T19:11:03.033Z,66.46
2022-08-22T19:16:31.778Z,69.45
2022-08-22T19:21:55.042Z,70.84
2022-08-22T19:27:24.208Z,70.55
2022-08-22T19:33:05.186Z,74.01
2022-08-22T19:38:10.565Z,76.06
2022-08-22T19:43:27.326Z,73.14
2022-08-22T19:48:44.716Z,74.83
2022-08-22T19:53:57.092Z,74.78
2022-08-22T19:59:12.560Z,75.26
2022-08-22T20:04:50.485Z,76.27
2022-08-22T20:10:05.411Z,76.70
2022-08-22T20:15:17.867Z,77.21
2022-08-22T20:20:58.288Z,77.09
2022-08-22T20:26:02.358Z,81.30
2022-08-22T20:31:10.822Z,78.22
2022-08-22T20:36:27.680Z,77.64
2022-08-22T20:41:36.705Z,76.05
2022-08-22T20:46:57.682Z,76.71
2022-08-22T20:52:05.836Z,79.01
2022-08-22T20:57:16.121Z,77.91
2022-08-22T21:02:22.585Z,77.78
2022-08-22T21:07:30.857Z,77.49
2022-08-22T21:12:34.601Z,78.01
2022-08-22T21:17:39.197Z,78.11
2022-08-22T21:22:44.800Z,78.37
2022-08-22T21:27:49.679Z,79.12
2022-08-22T21:32:56.464Z,79.57
2022-08-22T21:38:02.943Z,80.37
2022-08-22T21:43:09.427Z,81.39
2022-08-22T21:48:35.520Z,83.01
2022-08-22T21:53:40.589Z,88.22
2022-08-22T21:58:46.250Z,86.06
2022-08-22T22:03:50.033Z,87.56
2022-08-22T22:08:55.197Z,88.58
2022-08-22T22:13:59.306Z,89.85
2022-08-22T22:19:03.056Z,90.91
2022-08-22T22:24:08.408Z,92.17
2022-08-22T22:29:12.319Z,95.69
2022-08-22T22:34:16.286Z,98.26
2022-08-22T22:39:21.439Z,100.00
2022-08-22T22:44:26.150Z,100.00
2022-08-22T22:49:30.166Z,100.00
2022-08-22T22:54:35.256Z,100.00
2022-08-22T22:59:39.114Z,100.00
2022-08-22T23:04:46.206Z,100.00
2022-08-22T23:09:52.311Z,100.00
2022-08-22T23:14:57.383Z,100.00
2022-08-22T23:20:01.125Z,100.00
2022-08-22T23:25:06.786Z,100.00
2022-08-22T23:30:12.193Z,100.00
2022-08-22T23:35:16.066Z,100.00
2022-08-22T23:40:21.177Z,100.00
2022-08-22T23:45:24.945Z,100.00
2022-08-22T23:50:28.709Z,100.00
2022-08-22T23:55:33.760Z,100.00
